Time;durP1;ratioP1;P1;durP2;ratioP2;P2;SDS_P1;SDS_P2;PMS_P1;PMS_P2;Temp;Humidity;BMP_temperature;BMP_pressure;BME280_temperature;BME280_humidity;BME280_pressure;Samples;Min_cycle;Max_cycle;Signal;HPM_P1;HPM_P2
2021/04/14 00:00:24;;;;;;;21.80;4.47;;;5.00;98.30;;;;;;5090968;23;20457;-79
2021/04/14 00:02:26;;;;;;;13.50;3.90;;;4.90;98.30;;;;;;5091187;23;21282;-79
2021/04/14 00:04:28;;;;;;;13.20;4.10;;;4.90;98.30;;;;;;5099602;23;20449;-79
2021/04/14 00:06:30;;;;;;;10.30;4.10;;;4.90;98.30;;;;;;5091499;23;20453;-79
2021/04/14 00:08:32;;;;;;;9.63;5.13;;;4.90;98.30;;;;;;5099654;23;20773;-79
2021/04/14 00:10:36;;;;;;;6.70;3.83;;;4.80;98.30;;;;;;5091451;23;20459;-79
2021/04/14 00:12:39;;;;;;;7.83;4.20;;;4.60;98.30;;;;;;5099208;23;20457;-79
2021/04/14 00:14:42;;;;;;;7.00;4.03;;;4.40;98.30;;;;;;5101629;23;20443;-79
2021/04/14 00:16:43;;;;;;;8.90;4.37;;;4.20;98.30;;;;;;5096780;23;20838;-79
2021/04/14 00:18:46;;;;;;;8.15;4.35;;;4.10;98.30;;;;;;5090642;23;20454;-79
2021/04/14 00:20:49;;;;;;;12.13;4.50;;;4.00;98.30;;;;;;5091133;23;20207;-79
2021/04/14 00:22:51;;;;;;;9.57;4.30;;;3.90;98.30;;;;;;5090539;23;20662;-79
2021/04/14 00:24:53;;;;;;;9.88;4.40;;;3.90;98.30;;;;;;5099220;23;20215;-79
2021/04/14 00:26:55;;;;;;;9.40;4.72;;;3.80;98.30;;;;;;5090522;23;20230;-79
2021/04/14 00:28:58;;;;;;;11.35;4.80;;;3.90;98.30;;;;;;5090751;23;20212;-79
2021/04/14 00:31:00;;;;;;;10.77;4.90;;;3.80;98.30;;;;;;5090342;23;20215;-79
2021/04/14 00:33:02;;;;;;;7.75;4.45;;;3.80;98.30;;;;;;5090289;23;20207;-79
2021/04/14 00:35:05;;;;;;;10.10;4.65;;;3.70;98.30;;;;;;5090669;23;20534;-79
2021/04/14 00:37:07;;;;;;;16.77;4.88;;;3.80;98.30;;;;;;5099266;23;20211;-79
2021/04/14 00:39:13;;;;;;;15.32;5.40;;;3.90;98.30;;;;;;5090538;23;20238;-79
2021/04/14 00:41:15;;;;;;;12.10;4.53;;;3.90;98.30;;;;;;5091093;23;20207;-79
2021/04/14 00:43:21;;;;;;;12.48;4.97;;;3.90;98.30;;;;;;5091019;23;20267;-79
2021/04/14 00:45:24;;;;;;;10.55;4.45;;;3.90;98.30;;;;;;5090996;23;20270;-79
2021/04/14 00:47:26;;;;;;;12.73;5.88;;;3.80;98.30;;;;;;5092034;23;20210;-79
2021/04/14 00:49:28;;;;;;;13.43;5.90;;;3.80;98.30;;;;;;5092904;23;20209;-79
2021/04/14 00:51:31;;;;;;;13.07;4.85;;;3.90;98.30;;;;;;5092480;23;20529;-79
2021/04/14 00:53:33;;;;;;;11.45;4.85;;;4.00;98.30;;;;;;5092864;23;20207;-79
2021/04/14 00:55:37;;;;;;;8.90;5.15;;;4.20;98.30;;;;;;5091610;23;20207;-79
2021/04/14 00:57:39;;;;;;;10.60;5.05;;;4.20;98.30;;;;;;5091148;23;20704;-79
2021/04/14 00:59:41;;;;;;;14.00;5.50;;;4.30;98.30;;;;;;5090595;23;20214;-80
2021/04/14 01:01:43;;;;;;;11.17;5.13;;;4.40;98.30;;;;;;5099618;23;20207;-80
2021/04/14 01:03:45;;;;;;;10.10;5.07;;;4.40;98.30;;;;;;5092336;23;20455;-79
2021/04/14 01:05:48;;;;;;;8.53;5.57;;;4.40;98.30;;;;;;5092030;23;20969;-79
2021/04/14 01:07:51;;;;;;;14.45;6.05;;;4.50;98.30;;;;;;5092336;23;20451;-79
2021/04/14 01:09:52;;;;;;;6.73;5.03;;;4.50;98.30;;;;;;5092149;23;20211;-79
2021/04/14 01:11:55;;;;;;;10.83;5.60;;;4.50;98.30;;;;;;5100783;23;20502;-79
2021/04/14 01:13:57;;;;;;;14.77;5.70;;;4.50;98.30;;;;;;5092491;23;20939;-79
2021/04/14 01:15:59;;;;;;;13.10;5.50;;;4.50;98.30;;;;;;5092508;23;20482;-79
2021/04/14 01:18:03;;;;;;;7.77;4.90;;;4.50;98.30;;;;;;5090714;23;20458;-79
2021/04/14 01:20:07;;;;;;;14.73;4.50;;;4.30;98.30;;;;;;5093019;23;20479;-79
2021/04/14 01:22:10;;;;;;;11.37;5.20;;;4.20;98.30;;;;;;5108116;23;20249;-79
2021/04/14 01:24:14;;;;;;;13.10;4.60;;;4.20;98.30;;;;;;5091035;23;20466;-79
2021/04/14 01:26:16;;;;;;;11.02;5.70;;;4.00;98.30;;;;;;5099287;23;20454;-79
2021/04/14 01:28:21;;;;;;;12.45;5.63;;;3.90;98.30;;;;;;5091652;23;20203;-79
2021/04/14 01:30:25;;;;;;;12.52;5.25;;;3.80;98.30;;;;;;5091598;23;20215;-79
2021/04/14 01:32:29;;;;;;;12.55;6.95;;;3.60;98.30;;;;;;5091558;23;20262;-80
2021/04/14 01:34:31;;;;;;;11.90;6.90;;;3.50;98.30;;;;;;5091452;23;20212;-79
2021/04/14 01:36:34;;;;;;;16.85;6.20;;;3.50;98.30;;;;;;5091619;23;20538;-79
2021/04/14 01:38:38;;;;;;;10.68;5.95;;;3.40;98.30;;;;;;5092190;23;20278;-79
2021/04/14 01:40:40;;;;;;;10.68;6.47;;;3.40;98.30;;;;;;5099999;23;20207;-79
2021/04/14 01:42:42;;;;;;;12.88;6.28;;;3.30;98.30;;;;;;5092888;23;20957;-79
2021/04/14 01:44:43;;;;;;;14.70;6.30;;;3.30;98.30;;;;;;5093178;23;20211;-79
2021/04/14 01:46:45;;;;;;;11.88;6.93;;;3.20;98.30;;;;;;5092713;23;20667;-79
2021/04/14 01:48:49;;;;;;;14.02;7.35;;;3.20;98.30;;;;;;5092233;23;20243;-79
2021/04/14 01:50:51;;;;;;;14.68;6.95;;;3.10;98.30;;;;;;5092104;23;20235;-79
2021/04/14 01:52:53;;;;;;;14.93;6.85;;;3.20;98.30;;;;;;5092461;23;20218;-79
2021/04/14 01:54:56;;;;;;;13.77;6.47;;;3.20;98.30;;;;;;5092348;23;20230;-79
2021/04/14 01:56:57;;;;;;;15.98;6.15;;;3.20;98.30;;;;;;5092091;23;20207;-79
2021/04/14 01:58:59;;;;;;;18.52;7.82;;;3.10;98.30;;;;;;5099437;23;20207;-79
2021/04/14 02:01:04;;;;;;;13.40;7.25;;;3.10;98.30;;;;;;5091063;23;20212;-79
2021/04/14 02:03:06;;;;;;;15.52;7.90;;;3.10;98.30;;;;;;5091556;23;20204;-79
2021/04/14 02:05:11;;;;;;;21.98;8.02;;;3.00;98.30;;;;;;5092326;23;20218;-79
2021/04/14 02:07:13;;;;;;;17.65;8.40;;;3.00;98.30;;;;;;5091459;23;20211;-79
2021/04/14 02:09:15;;;;;;;20.85;8.10;;;3.00;98.30;;;;;;5091596;23;20203;-79
2021/04/14 02:11:18;;;;;;;17.25;7.68;;;2.90;98.30;;;;;;5092456;23;20207;-80
2021/04/14 02:13:22;;;;;;;15.35;7.43;;;2.90;98.30;;;;;;5101133;23;20200;-80
2021/04/14 02:15:27;;;;;;;15.70;7.63;;;2.90;98.30;;;;;;5092666;23;20207;-80
2021/04/14 02:17:30;;;;;;;16.95;8.13;;;2.80;98.30;;;;;;5092094;23;20203;-79
2021/04/14 02:19:32;;;;;;;22.48;8.52;;;2.80;98.30;;;;;;5092142;23;20702;-78
2021/04/14 02:21:34;;;;;;;14.23;7.82;;;2.80;98.30;;;;;;5092648;23;20212;-78
2021/04/14 02:23:40;;;;;;;22.08;8.18;;;2.80;98.30;;;;;;5092585;23;20267;-79
2021/04/14 02:25:42;;;;;;;16.65;7.80;;;2.80;98.30;;;;;;5101518;23;20235;-79
2021/04/14 02:27:45;;;;;;;13.63;7.60;;;2.80;98.30;;;;;;5093269;23;20215;-79
2021/04/14 02:29:47;;;;;;;14.93;8.57;;;2.70;98.30;;;;;;5096377;23;20238;-79
2021/04/14 02:31:48;;;;;;;15.88;8.57;;;2.70;98.30;;;;;;5100422;23;20850;-78
2021/04/14 02:33:50;;;;;;;20.88;8.48;;;2.70;98.30;;;;;;5091790;23;20207;-79
2021/04/14 02:35:54;;;;;;;12.88;8.40;;;2.70;98.30;;;;;;5100451;23;20298;-78
2021/04/14 02:37:56;;;;;;;19.92;8.07;;;2.70;98.30;;;;;;5091558;23;20199;-79
2021/04/14 02:39:58;;;;;;;19.17;8.63;;;2.70;98.30;;;;;;5091146;23;20870;-79
2021/04/14 02:42:00;;;;;;;15.50;7.85;;;2.70;98.30;;;;;;5091073;23;20222;-79
2021/04/14 02:44:03;;;;;;;43.53;23.48;;;2.70;98.30;;;;;;5091700;23;20701;-79
2021/04/14 02:46:05;;;;;;;28.55;15.88;;;2.60;98.30;;;;;;5091030;23;20327;-79
2021/04/14 02:48:09;;;;;;;55.45;27.90;;;2.70;98.30;;;;;;5099954;23;20676;-79
2021/04/14 02:50:12;;;;;;;22.83;10.25;;;2.70;98.30;;;;;;5091090;23;20623;-79
2021/04/14 02:52:14;;;;;;;15.23;8.07;;;2.70;98.30;;;;;;5090929;23;20214;-79
2021/04/14 02:54:16;;;;;;;15.60;8.20;;;2.70;98.30;;;;;;5089982;23;20576;-79
2021/04/14 02:56:18;;;;;;;11.88;7.45;;;2.70;98.30;;;;;;5090206;23;20542;-79
2021/04/14 02:58:19;;;;;;;17.70;8.00;;;2.70;98.30;;;;;;5091326;23;20213;-79
2021/04/14 03:00:25;;;;;;;13.98;7.07;;;2.70;98.30;;;;;;5090640;23;20215;-79
2021/04/14 03:02:30;;;;;;;15.35;7.55;;;2.70;98.30;;;;;;5099393;23;20286;-79
2021/04/14 03:04:32;;;;;;;16.27;8.07;;;2.70;98.30;;;;;;5099038;23;20208;-79
2021/04/14 03:06:35;;;;;;;15.07;7.28;;;2.60;98.30;;;;;;5091508;23;20214;-79
2021/04/14 03:08:37;;;;;;;15.63;8.63;;;2.70;98.30;;;;;;5091491;23;20207;-79
2021/04/14 03:10:39;;;;;;;20.10;8.85;;;2.60;98.30;;;;;;5090483;23;20322;-79
2021/04/14 03:12:41;;;;;;;14.57;8.23;;;2.70;98.30;;;;;;5090863;23;20218;-79
2021/04/14 03:14:44;;;;;;;16.70;7.18;;;2.80;98.30;;;;;;5099269;23;20219;-79
2021/04/14 03:16:47;;;;;;;12.35;7.15;;;2.80;98.30;;;;;;5090917;23;20211;-79
2021/04/14 03:18:49;;;;;;;15.95;7.03;;;2.90;98.30;;;;;;5091478;23;20286;-79
2021/04/14 03:20:50;;;;;;;9.52;6.70;;;2.90;98.30;;;;;;5090599;23;20210;-79
2021/04/14 03:22:54;;;;;;;12.93;7.05;;;3.00;98.30;;;;;;5098802;23;20205;-79
2021/04/14 03:24:56;;;;;;;16.08;7.47;;;3.00;98.30;;;;;;5091630;23;20203;-78
2021/04/14 03:26:58;;;;;;;15.68;7.85;;;3.00;98.30;;;;;;5091542;23;20538;-78
2021/04/14 03:29:00;;;;;;;16.92;8.10;;;3.00;98.30;;;;;;5093100;23;20243;-78
2021/04/14 03:31:02;;;;;;;13.45;7.38;;;3.10;98.30;;;;;;5100501;23;20679;-78
2021/04/14 03:33:05;;;;;;;13.20;6.80;;;3.20;98.30;;;;;;5108450;23;20227;-77
2021/04/14 03:35:08;;;;;;;15.45;5.97;;;3.30;98.30;;;;;;5100231;23;20290;-78
2021/04/14 03:37:10;;;;;;;11.00;6.78;;;3.20;98.30;;;;;;5100202;23;20199;-78
2021/04/14 03:39:12;;;;;;;16.15;6.85;;;3.20;98.30;;;;;;5100003;23;20210;-78
2021/04/14 03:41:15;;;;;;;13.77;6.05;;;3.20;98.30;;;;;;5099935;23;20242;-78
2021/04/14 03:43:17;;;;;;;13.55;6.75;;;3.10;98.30;;;;;;5098829;23;20271;-78
2021/04/14 03:45:26;;;;;;;14.38;8.02;;;3.10;98.30;;;;;;5093130;23;20219;-78
2021/04/14 03:47:30;;;;;;;21.58;7.55;;;3.00;98.30;;;;;;5091497;23;20710;-78
2021/04/14 03:49:33;;;;;;;17.17;7.80;;;3.10;98.30;;;;;;5090921;23;20215;-78
2021/04/14 03:51:36;;;;;;;10.85;6.35;;;3.10;98.30;;;;;;5091479;23;20226;-79
2021/04/14 03:53:38;;;;;;;13.98;6.38;;;3.10;98.30;;;;;;5099581;23;20206;-79
2021/04/14 03:55:40;;;;;;;23.73;12.05;;;3.10;98.30;;;;;;5091067;23;20214;-79
2021/04/14 03:57:42;;;;;;;19.38;10.10;;;3.00;98.30;;;;;;5100219;23;20250;-79
2021/04/14 03:59:44;;;;;;;12.38;6.80;;;3.00;98.30;;;;;;5090964;23;20214;-79
2021/04/14 04:01:46;;;;;;;14.75;6.55;;;3.00;98.30;;;;;;5090752;23;20286;-79
2021/04/14 04:03:48;;;;;;;16.10;6.65;;;3.00;98.30;;;;;;5099511;23;20207;-79
2021/04/14 04:05:51;;;;;;;17.50;7.00;;;3.00;98.30;;;;;;5091675;23;20286;-79
2021/04/14 04:07:52;;;;;;;17.27;7.40;;;3.00;98.30;;;;;;5091170;23;20290;-79
2021/04/14 04:09:54;;;;;;;14.30;7.28;;;3.00;98.30;;;;;;5091126;23;20262;-79
2021/04/14 04:11:56;;;;;;;13.75;6.20;;;3.00;98.30;;;;;;5091646;23;20675;-79
2021/04/14 04:13:59;;;;;;;9.23;6.32;;;3.00;98.30;;;;;;5099186;23;20199;-79
2021/04/14 04:16:01;;;;;;;9.82;6.50;;;3.00;98.30;;;;;;5091389;23;20716;-78
2021/04/14 04:18:04;;;;;;;17.58;6.88;;;3.10;98.30;;;;;;5091119;23;20215;-78
2021/04/14 04:20:08;;;;;;;15.02;6.80;;;3.00;98.30;;;;;;5099085;23;20200;-78
2021/04/14 04:22:13;;;;;;;12.30;6.95;;;2.90;98.30;;;;;;5091011;23;20777;-79
2021/04/14 04:24:15;;;;;;;12.55;8.00;;;2.90;98.30;;;;;;5090514;23;20215;-78
2021/04/14 04:26:18;;;;;;;14.43;7.18;;;2.90;98.30;;;;;;5099132;23;20203;-79
2021/04/14 04:28:20;;;;;;;17.27;7.30;;;2.80;98.30;;;;;;5099275;23;20211;-79
2021/04/14 04:30:23;;;;;;;16.73;8.38;;;2.80;98.30;;;;;;5098946;23;20200;-78
2021/04/14 04:32:25;;;;;;;17.98;7.97;;;2.70;98.30;;;;;;5091663;23;20207;-79
2021/04/14 04:34:27;;;;;;;15.65;8.05;;;2.70;98.30;;;;;;5091231;23;20484;-78
2021/04/14 04:36:29;;;;;;;16.45;8.07;;;2.70;98.30;;;;;;5099270;23;20214;-78
2021/04/14 04:38:34;;;;;;;16.98;8.50;;;2.70;98.30;;;;;;5099308;23;20615;-79
2021/04/14 04:40:36;;;;;;;17.73;7.72;;;2.80;98.30;;;;;;5098902;23;20670;-78
2021/04/14 04:42:41;;;;;;;15.07;7.93;;;2.80;98.30;;;;;;5098821;23;20290;-79
2021/04/14 04:44:43;;;;;;;16.65;7.85;;;2.80;98.30;;;;;;5090841;23;20204;-78
2021/04/14 04:46:45;;;;;;;19.75;7.93;;;2.90;98.30;;;;;;5098662;23;20203;-78
2021/04/14 04:48:47;;;;;;;11.43;7.97;;;2.90;98.30;;;;;;5090916;23;20216;-78
2021/04/14 04:50:49;;;;;;;17.75;7.18;;;2.90;98.30;;;;;;5098343;23;20721;-79
2021/04/14 04:52:51;;;;;;;10.52;7.38;;;2.90;98.30;;;;;;5090198;23;20681;-78
2021/04/14 04:54:53;;;;;;;13.02;6.28;;;3.00;98.30;;;;;;5090486;23;20203;-78
2021/04/14 04:56:55;;;;;;;12.13;7.03;;;3.10;98.30;;;;;;5090413;23;20689;-78
2021/04/14 04:58:57;;;;;;;15.20;7.20;;;3.10;98.30;;;;;;5090092;23;20204;-78
2021/04/14 05:00:59;;;;;;;15.85;7.47;;;3.20;98.30;;;;;;5090440;23;20211;-79
2021/04/14 05:03:03;;;;;;;12.02;7.00;;;3.20;98.30;;;;;;5098514;23;20195;-79
2021/04/14 05:05:06;;;;;;;16.02;7.35;;;3.20;98.30;;;;;;5098942;23;20209;-79
2021/04/14 05:07:08;;;;;;;15.93;6.85;;;3.20;98.30;;;;;;5090506;23;20211;-79
2021/04/14 05:09:10;;;;;;;17.08;8.10;;;3.30;98.30;;;;;;5090705;23;20710;-79
2021/04/14 05:11:13;;;;;;;12.35;7.32;;;3.30;98.30;;;;;;5098739;23;20208;-79
2021/04/14 05:13:15;;;;;;;10.98;7.28;;;3.30;98.30;;;;;;5099156;23;20531;-78
2021/04/14 05:15:21;;;;;;;17.15;6.50;;;3.40;98.30;;;;;;5090841;23;20214;-78
2021/04/14 05:17:23;;;;;;;16.60;6.68;;;3.50;98.30;;;;;;5090939;23;20203;-79
2021/04/14 05:19:25;;;;;;;10.30;5.85;;;3.50;98.30;;;;;;5090745;23;20683;-79
2021/04/14 05:21:28;;;;;;;12.60;5.95;;;3.60;98.30;;;;;;5098220;23;20671;-78
2021/04/14 05:23:30;;;;;;;12.63;6.45;;;3.70;98.30;;;;;;5099179;23;20557;-79
2021/04/14 05:25:34;;;;;;;8.05;5.50;;;3.70;98.30;;;;;;5090547;23;20670;-78
2021/04/14 05:27:38;;;;;;;12.55;5.72;;;3.70;98.30;;;;;;5098900;23;20254;-79
2021/04/14 05:29:40;;;;;;;9.82;5.45;;;3.70;98.30;;;;;;5090251;23;20617;-79
2021/04/14 05:31:42;;;;;;;13.02;6.68;;;3.80;98.30;;;;;;5090393;23;20207;-79
2021/04/14 05:33:44;;;;;;;13.18;5.90;;;3.80;98.30;;;;;;5090788;23;20727;-79
2021/04/14 05:35:46;;;;;;;11.73;6.03;;;3.90;98.30;;;;;;5092221;23;20208;-79
2021/04/14 05:37:48;;;;;;;13.60;6.68;;;4.10;98.30;;;;;;5092560;23;20731;-78
2021/04/14 05:39:49;;;;;;;8.45;4.85;;;4.20;98.30;;;;;;5091437;23;20216;-78
2021/04/14 05:41:51;;;;;;;15.55;4.90;;;4.30;98.30;;;;;;5092108;23;20738;-78
2021/04/14 05:43:54;;;;;;;11.73;4.70;;;4.30;98.30;;;;;;5092202;23;20203;-78
2021/04/14 05:45:58;;;;;;;8.35;4.65;;;4.40;98.30;;;;;;5100401;23;20714;-78
2021/04/14 05:48:00;;;;;;;8.55;5.57;;;4.40;98.30;;;;;;5100016;23;20207;-78
2021/04/14 05:50:04;;;;;;;8.80;5.00;;;4.40;98.30;;;;;;5091633;23;20204;-79
2021/04/14 05:52:06;;;;;;;9.93;5.10;;;4.40;98.30;;;;;;5091471;23;20534;-78
2021/04/14 05:54:08;;;;;;;9.18;4.63;;;4.50;98.30;;;;;;5091381;23;20230;-78
2021/04/14 05:56:11;;;;;;;10.63;4.18;;;4.60;98.30;;;;;;5090922;23;20214;-78
2021/04/14 05:58:13;;;;;;;7.18;4.30;;;4.60;98.30;;;;;;5091472;23;20545;-78
2021/04/14 06:00:18;;;;;;;9.73;4.73;;;4.60;98.30;;;;;;5090247;23;20212;-78
2021/04/14 06:02:20;;;;;;;8.97;4.80;;;4.70;98.30;;;;;;5091224;23;20958;-78
2021/04/14 06:04:22;;;;;;;7.00;4.37;;;4.80;98.30;;;;;;5090866;23;20467;-78
2021/04/14 06:06:26;;;;;;;7.13;4.37;;;4.90;98.30;;;;;;5090803;23;20463;-78
2021/04/14 06:08:29;;;;;;;7.23;4.27;;;4.90;98.30;;;;;;5099255;23;20455;-78
2021/04/14 06:10:35;;;;;;;8.93;4.80;;;4.90;98.30;;;;;;5098554;23;20454;-78
2021/04/14 06:12:38;;;;;;;15.97;5.13;;;4.90;98.30;;;;;;5098828;23;20459;-78
2021/04/14 06:14:40;;;;;;;9.00;4.00;;;4.90;98.30;;;;;;5090988;23;20463;-78
2021/04/14 06:16:42;;;;;;;9.20;4.60;;;5.00;98.30;;;;;;5090598;23;20456;-78
2021/04/14 06:18:46;;;;;;;10.43;4.50;;;5.00;98.30;;;;;;5091195;23;20458;-78
2021/04/14 06:20:47;;;;;;;11.70;4.20;;;5.00;98.30;;;;;;5091448;23;20848;-78
2021/04/14 06:22:49;;;;;;;6.73;3.90;;;5.10;98.30;;;;;;5090741;23;20456;-78
2021/04/14 06:24:51;;;;;;;6.97;3.80;;;5.20;98.30;;;;;;5091752;23;21054;-78
2021/04/14 06:26:56;;;;;;;8.43;4.23;;;5.20;98.30;;;;;;5091941;23;20470;-78
2021/04/14 06:28:57;;;;;;;14.77;6.90;;;5.30;98.30;;;;;;5098931;23;20456;-78
2021/04/14 06:30:59;;;;;;;41.33;21.63;;;5.40;98.30;;;;;;5091348;23;20873;-78
2021/04/14 06:33:04;;;;;;;13.27;6.27;;;5.50;98.30;;;;;;5091221;23;20459;-78
2021/04/14 06:35:07;;;;;;;8.80;4.53;;;5.60;98.30;;;;;;5091579;23;20539;-78
2021/04/14 06:37:09;;;;;;;8.60;4.10;;;5.70;98.30;;;;;;5091441;23;20457;-79
2021/04/14 06:39:12;;;;;;;8.80;4.40;;;5.70;98.30;;;;;;5091969;23;20457;-79
2021/04/14 06:41:49;;;;;;;8.43;4.03;;;5.80;98.30;;;;;;5091699;23;20844;-79
2021/04/14 06:44:01;;;;;;;6.13;3.83;;;5.90;98.30;;;;;;5086296;23;20453;-79
2021/04/14 06:46:06;;;;;;;11.10;3.80;;;6.00;98.30;;;;;;5091280;23;20949;-79
2021/04/14 06:48:22;;;;;;;9.70;3.93;;;6.10;98.30;;;;;;5091294;23;20458;-79
2021/04/14 06:50:30;;;;;;;14.10;4.10;;;6.30;98.30;;;;;;5090014;23;20494;-79
2021/04/14 06:52:36;;;;;;;10.53;3.83;;;6.40;98.30;;;;;;5089872;23;20537;-78
2021/04/14 06:54:44;;;;;;;9.97;3.10;;;6.40;98.30;;;;;;5089004;23;20455;-77
2021/04/14 06:56:51;;;;;;;9.13;3.83;;;6.30;98.30;;;;;;5089134;23;20454;-77
2021/04/14 06:58:59;;;;;;;10.70;4.10;;;6.40;98.30;;;;;;5088802;23;20779;-77
2021/04/14 07:01:08;;;;;;;8.30;3.47;;;6.40;98.30;;;;;;5089478;23;20949;-78
2021/04/14 07:03:13;;;;;;;6.93;3.07;;;6.50;98.30;;;;;;5089276;23;20458;-77
2021/04/14 07:05:21;;;;;;;16.00;3.97;;;6.50;98.30;;;;;;5089058;23;20879;-77
2021/04/14 07:07:26;;;;;;;4.80;3.00;;;6.60;98.30;;;;;;5089410;23;20451;-76
2021/04/14 07:09:34;;;;;;;28.67;14.10;;;6.80;98.30;;;;;;5089909;23;20977;-76
2021/04/14 07:11:37;;;;;;;13.33;9.50;;;7.00;98.30;;;;;;5090716;23;20458;-77
2021/04/14 07:13:39;;;;;;;34.07;19.07;;;7.10;98.30;;;;;;5090852;23;20509;-77
2021/04/14 07:15:41;;;;;;;9.50;5.20;;;7.30;98.30;;;;;;5090642;23;20806;-76
2021/04/14 07:17:59;;;;;;;28.97;11.27;;;7.30;98.30;;;;;;5098903;23;20425;-77
2021/04/14 07:20:19;;;;;;;26.93;12.37;;;7.40;98.30;;;;;;5090609;23;20468;-77
2021/04/14 07:22:33;;;;;;;13.03;6.30;;;7.40;98.30;;;;;;5090486;23;20429;-76
2021/04/14 07:24:37;;;;;;;6.37;3.00;;;7.30;98.30;;;;;;5090306;23;20437;-76
2021/04/14 07:26:46;;;;;;;7.83;3.50;;;7.10;98.30;;;;;;5089965;23;20482;-76
2021/04/14 07:29:01;;;;;;;6.47;2.97;;;6.90;98.30;;;;;;5089954;23;20512;-76
2021/04/14 07:31:10;;;;;;;6.83;3.30;;;6.80;98.30;;;;;;5090403;23;20451;-77
2021/04/14 07:33:18;;;;;;;8.73;3.27;;;6.70;98.30;;;;;;5090431;23;21017;-77
2021/04/14 07:35:27;;;;;;;4.77;2.87;;;6.80;98.30;;;;;;5090747;23;20454;-77
2021/04/14 07:37:38;;;;;;;6.60;3.70;;;6.90;98.30;;;;;;5090633;23;20454;-77
2021/04/14 07:39:45;;;;;;;3.73;2.53;;;7.00;98.30;;;;;;5090245;23;20436;-76
2021/04/14 07:41:58;;;;;;;8.00;2.70;;;7.30;98.30;;;;;;5090225;23;20457;-77
2021/04/14 07:44:05;;;;;;;8.50;3.00;;;7.60;98.30;;;;;;5090075;23;20433;-77
2021/04/14 07:46:09;;;;;;;9.37;2.83;;;7.90;98.30;;;;;;5090206;23;20429;-76
2021/04/14 07:48:17;;;;;;;3.87;2.70;;;7.90;98.30;;;;;;5090162;23;20455;-77
2021/04/14 07:50:26;;;;;;;6.20;2.60;;;8.10;98.30;;;;;;5098410;23;21193;-76
2021/04/14 07:52:33;;;;;;;3.63;2.70;;;8.40;98.30;;;;;;5090142;23;20516;-77
2021/04/14 07:54:40;;;;;;;4.47;2.43;;;8.40;98.30;;;;;;5090238;23;20461;-77
2021/04/14 07:56:44;;;;;;;8.10;2.53;;;8.40;98.30;;;;;;5098007;23;20429;-77
2021/04/14 07:58:48;;;;;;;3.53;2.30;;;8.40;98.30;;;;;;5089962;23;20451;-77
2021/04/14 08:00:50;;;;;;;7.80;2.90;;;8.40;98.30;;;;;;5090324;23;20462;-77
2021/04/14 08:02:54;;;;;;;3.77;2.47;;;8.30;98.30;;;;;;5090341;23;21022;-77
2021/04/14 08:05:06;;;;;;;5.60;2.60;;;8.30;98.30;;;;;;5090195;23;20429;-77
2021/04/14 08:07:14;;;;;;;6.07;2.73;;;8.30;98.30;;;;;;5090332;23;20474;-77
2021/04/14 08:09:20;;;;;;;5.53;2.37;;;8.50;98.30;;;;;;5090133;23;20570;-77
2021/04/14 08:11:29;;;;;;;5.10;2.67;;;8.70;98.30;;;;;;5090520;23;20465;-77
2021/04/14 08:13:37;;;;;;;7.20;3.10;;;8.90;98.30;;;;;;5090750;23;20947;-76
2021/04/14 08:15:43;;;;;;;9.50;2.83;;;8.90;98.30;;;;;;5090638;23;20790;-76
2021/04/14 08:17:47;;;;;;;8.37;5.00;;;9.00;98.30;;;;;;5090568;23;20514;-77
2021/04/14 08:19:59;;;;;;;9.77;5.70;;;9.10;98.30;;;;;;5090344;23;20782;-76
2021/04/14 08:22:03;;;;;;;6.77;3.57;;;9.10;98.30;;;;;;5090334;23;20478;-77
2021/04/14 08:24:15;;;;;;;6.20;2.70;;;9.10;98.00;;;;;;5090058;23;20508;-77
2021/04/14 08:26:19;;;;;;;4.63;2.90;;;9.20;97.90;;;;;;5090186;23;20491;-77
2021/04/14 08:28:31;;;;;;;6.80;3.00;;;9.20;97.70;;;;;;5090168;23;20457;-77
2021/04/14 08:30:33;;;;;;;7.40;3.00;;;9.40;97.90;;;;;;5090176;23;20491;-77
2021/04/14 08:32:37;;;;;;;4.53;2.70;;;9.70;97.00;;;;;;5090054;23;20459;-77
2021/04/14 08:34:40;;;;;;;5.63;2.90;;;9.80;96.40;;;;;;5090137;23;21117;-77
2021/04/14 08:36:50;;;;;;;6.70;3.83;;;10.00;96.20;;;;;;5090797;23;20462;-77
2021/04/14 08:38:52;;;;;;;7.30;3.20;;;10.20;95.40;;;;;;5091440;23;20458;-77
2021/04/14 08:40:57;;;;;;;3.70;2.50;;;10.30;94.50;;;;;;5091721;23;20473;-77
2021/04/14 08:43:08;;;;;;;5.37;4.10;;;10.30;93.80;;;;;;5100085;23;21265;-77
2021/04/14 08:45:16;;;;;;;19.70;9.73;;;10.40;93.80;;;;;;5091576;23;20481;-77
2021/04/14 08:47:28;;;;;;;14.43;8.13;;;10.40;94.20;;;;;;5091555;23;21010;-77
2021/04/14 08:49:30;;;;;;;13.13;6.70;;;10.30;92.90;;;;;;5091263;23;21091;-77
2021/04/14 08:51:36;;;;;;;13.07;6.03;;;10.10;91.70;;;;;;5091545;23;20970;-77
2021/04/14 08:53:41;;;;;;;5.10;3.47;;;9.90;92.90;;;;;;5091301;23;20457;-78
2021/04/14 08:55:44;;;;;;;6.03;3.37;;;9.90;92.80;;;;;;5099130;23;20451;-77
2021/04/14 08:57:46;;;;;;;7.40;3.60;;;9.80;92.80;;;;;;5091126;23;20459;-77
2021/04/14 08:59:48;;;;;;;5.43;2.93;;;9.70;92.90;;;;;;5091058;23;20458;-77
2021/04/14 09:01:52;;;;;;;6.90;2.77;;;9.60;93.50;;;;;;5091178;23;20455;-77
2021/04/14 09:03:56;;;;;;;8.70;2.93;;;9.50;93.60;;;;;;5091642;23;20509;-77
2021/04/14 09:05:58;;;;;;;5.40;2.67;;;9.50;93.40;;;;;;5091489;23;20457;-77
2021/04/14 09:08:01;;;;;;;7.03;3.17;;;9.40;94.10;;;;;;5099755;23;20450;-77
2021/04/14 09:10:06;;;;;;;6.00;3.30;;;9.50;95.00;;;;;;5093068;23;21005;-77
2021/04/14 09:12:09;;;;;;;5.83;2.83;;;9.60;94.50;;;;;;5101080;23;20421;-77
2021/04/14 09:14:22;;;;;;;4.53;2.77;;;9.50;94.60;;;;;;5092770;23;20461;-77
2021/04/14 09:16:37;;;;;;;4.93;2.93;;;9.40;94.90;;;;;;5092535;23;20465;-77
2021/04/14 09:18:41;;;;;;;23.10;11.37;;;9.30;94.60;;;;;;5093209;23;20457;-77
2021/04/14 09:20:43;;;;;;;36.37;19.10;;;9.40;94.60;;;;;;5092844;23;20782;-77
2021/04/14 09:22:56;;;;;;;19.40;7.67;;;9.40;95.20;;;;;;5092437;23;20430;-77
2021/04/14 09:25:10;;;;;;;7.67;3.47;;;9.70;94.70;;;;;;5093310;23;20453;-77
2021/04/14 09:27:33;;;;;;;11.10;3.20;;;10.10;93.50;;;;;;5101219;23;20531;-77
2021/04/14 09:29:51;;;;;;;5.30;2.77;;;10.50;92.80;;;;;;5092508;23;20465;-77
2021/04/14 09:31:55;;;;;;;11.00;5.60;;;10.90;90.50;;;;;;5093343;23;20480;-78
2021/04/14 09:34:09;;;;;;;6.80;3.70;;;11.10;89.30;;;;;;5093125;23;20486;-77
2021/04/14 09:36:14;;;;;;;5.57;2.90;;;11.20;88.50;;;;;;5093045;23;20458;-77
2021/04/14 09:38:33;;;;;;;4.53;2.70;;;11.10;87.60;;;;;;5092942;23;20454;-77
2021/04/14 09:40:37;;;;;;;7.63;2.77;;;11.10;86.90;;;;;;5093017;23;20458;-77
2021/04/14 09:42:43;;;;;;;7.33;2.80;;;10.80;86.60;;;;;;5095343;23;20523;-78
2021/04/14 09:44:46;;;;;;;5.43;2.70;;;10.60;85.70;;;;;;5092818;23;20451;-77
2021/04/14 09:46:58;;;;;;;3.50;2.70;;;10.30;85.90;;;;;;5092751;23;20626;-77
2021/04/14 09:49:11;;;;;;;5.23;2.40;;;10.10;87.10;;;;;;5092517;23;20467;-77
2021/04/14 09:51:18;;;;;;;4.20;2.30;;;9.90;87.90;;;;;;5092792;23;20455;-77
2021/04/14 09:53:29;;;;;;;4.50;3.33;;;10.00;88.40;;;;;;5092581;23;20454;-77
2021/04/14 09:55:37;;;;;;;4.80;2.67;;;10.20;88.10;;;;;;5092647;23;20455;-77
2021/04/14 09:57:43;;;;;;;6.47;2.73;;;10.50;87.60;;;;;;5092456;23;20478;-77
2021/04/14 09:59:47;;;;;;;5.73;2.83;;;11.00;87.70;;;;;;5092345;23;20469;-78
2021/04/14 10:01:50;;;;;;;23.80;14.20;;;11.40;85.20;;;;;;5092807;23;20513;-77
2021/04/14 10:03:57;;;;;;;42.53;24.47;;;11.70;83.60;;;;;;5092611;23;20454;-77
2021/04/14 10:06:06;;;;;;;59.63;32.97;;;11.90;83.10;;;;;;5092905;23;20455;-78
2021/04/14 10:08:14;;;;;;;9.83;5.33;;;12.00;82.00;;;;;;5092534;23;20480;-77
2021/04/14 10:10:20;;;;;;;8.30;3.23;;;11.80;81.50;;;;;;5092469;23;20531;-77
2021/04/14 10:12:29;;;;;;;6.90;3.13;;;11.60;81.60;;;;;;5092503;23;20454;-77
2021/04/14 10:14:41;;;;;;;4.57;2.57;;;11.50;80.40;;;;;;5092716;23;20545;-77
2021/04/14 10:16:44;;;;;;;4.00;2.30;;;11.10;78.00;;;;;;5092645;23;20454;-78
2021/04/14 10:18:51;;;;;;;6.00;2.97;;;11.10;79.70;;;;;;5092427;23;20458;-77
2021/04/14 10:21:13;;;;;;;7.73;2.63;;;11.10;79.30;;;;;;5092313;23;20494;-78
2021/04/14 10:23:19;;;;;;;4.40;2.60;;;11.00;79.20;;;;;;5092353;23;20462;-77
2021/04/14 10:25:25;;;;;;;3.73;2.60;;;11.10;80.00;;;;;;5093067;23;20454;-78
2021/04/14 10:27:27;;;;;;;6.37;3.00;;;11.80;80.80;;;;;;5092694;23;20457;-77
2021/04/14 10:29:34;;;;;;;4.20;2.17;;;12.40;80.10;;;;;;5092735;23;21218;-77
2021/04/14 10:31:38;;;;;;;5.20;2.33;;;12.60;77.40;;;;;;5092589;23;20470;-77
2021/04/14 10:33:42;;;;;;;3.87;2.00;;;12.30;75.10;;;;;;5092248;23;20493;-78
2021/04/14 10:35:45;;;;;;;3.40;2.30;;;12.10;75.80;;;;;;5092634;23;20481;-77
2021/04/14 10:37:49;;;;;;;43.60;25.43;;;12.00;75.30;;;;;;5092778;23;20458;-77
2021/04/14 10:39:52;;;;;;;55.03;33.40;;;11.80;77.30;;;;;;5092073;23;20957;-78
2021/04/14 10:41:54;;;;;;;23.87;13.53;;;11.80;76.90;;;;;;5092367;23;20451;-77
2021/04/14 10:43:57;;;;;;;7.33;3.53;;;11.60;76.40;;;;;;5092336;23;20482;-77
2021/04/14 10:46:03;;;;;;;7.53;2.50;;;11.40;77.90;;;;;;5092957;23;20455;-77
2021/04/14 10:48:07;;;;;;;6.50;4.00;;;11.00;82.30;;;;;;5092699;23;20510;-77